sensor_id;sensor_type;location;lat;lon;timestamp;P1;durP1;ratioP1;P2;durP2;ratioP2
35243;SDS011;37916;52.160;21.066;2022-12-11T00:05:16;58.28;;;24.17;;
35243;SDS011;37916;52.160;21.066;2022-12-11T00:15:17;55.53;;;23.52;;
35243;SDS011;37916;52.160;21.066;2022-12-11T00:25:18;52.70;;;20.90;;
35243;SDS011;37916;52.160;21.066;2022-12-11T00:35:18;56.58;;;22.33;;
35243;SDS011;37916;52.160;21.066;2022-12-11T00:45:21;48.75;;;20.33;;
35243;SDS011;37916;52.160;21.066;2022-12-11T00:55:28;44.03;;;16.65;;
35243;SDS011;37916;52.160;21.066;2022-12-11T01:15:34;62.13;;;23.30;;
35243;SDS011;37916;52.160;21.066;2022-12-11T01:25:42;68.25;;;28.02;;
35243;SDS011;37916;52.160;21.066;2022-12-11T01:35:43;57.90;;;20.27;;
35243;SDS011;37916;52.160;21.066;2022-12-11T01:45:45;68.60;;;25.48;;
35243;SDS011;37916;52.160;21.066;2022-12-11T01:55:47;67.83;;;21.63;;
35243;SDS011;37916;52.160;21.066;2022-12-11T02:05:52;80.22;;;30.25;;
35243;SDS011;37916;52.160;21.066;2022-12-11T02:15:56;76.27;;;27.20;;
35243;SDS011;37916;52.160;21.066;2022-12-11T02:47:30;68.90;;;26.20;;
35243;SDS011;37916;52.160;21.066;2022-12-11T03:08:07;68.13;;;26.77;;
35243;SDS011;37916;52.160;21.066;2022-12-11T03:18:11;50.33;;;18.90;;
35243;SDS011;37916;52.160;21.066;2022-12-11T03:28:26;37.27;;;14.23;;
35243;SDS011;37916;52.160;21.066;2022-12-11T03:38:34;47.63;;;21.13;;
35243;SDS011;37916;52.160;21.066;2022-12-11T03:48:39;48.90;;;23.37;;
35243;SDS011;37916;52.160;21.066;2022-12-11T03:58:46;34.60;;;15.60;;
35243;SDS011;37916;52.160;21.066;2022-12-11T04:08:47;34.80;;;13.47;;
35243;SDS011;37916;52.160;21.066;2022-12-11T04:18:55;33.17;;;15.40;;
35243;SDS011;37916;52.160;21.066;2022-12-11T04:29:14;33.47;;;14.57;;
35243;SDS011;37916;52.160;21.066;2022-12-11T04:39:18;33.10;;;16.53;;
35243;SDS011;37916;52.160;21.066;2022-12-11T04:49:18;39.43;;;16.97;;
35243;SDS011;37916;52.160;21.066;2022-12-11T04:59:19;48.37;;;23.97;;
35243;SDS011;37916;52.160;21.066;2022-12-11T05:09:35;38.90;;;17.97;;
35243;SDS011;37916;52.160;21.066;2022-12-11T05:19:42;48.20;;;19.13;;
35243;SDS011;37916;52.160;21.066;2022-12-11T05:41:00;38.77;;;15.47;;
35243;SDS011;37916;52.160;21.066;2022-12-11T05:51:18;32.70;;;15.17;;
35243;SDS011;37916;52.160;21.066;2022-12-11T06:01:37;27.17;;;13.03;;
35243;SDS011;37916;52.160;21.066;2022-12-11T06:11:41;25.53;;;13.93;;
35243;SDS011;37916;52.160;21.066;2022-12-11T06:21:45;24.10;;;12.63;;
35243;SDS011;37916;52.160;21.066;2022-12-11T06:32:02;23.23;;;11.30;;
35243;SDS011;37916;52.160;21.066;2022-12-11T06:42:04;23.43;;;13.27;;
35243;SDS011;37916;52.160;21.066;2022-12-11T06:52:08;20.53;;;11.77;;
35243;SDS011;37916;52.160;21.066;2022-12-11T07:02:15;22.27;;;10.80;;
35243;SDS011;37916;52.160;21.066;2022-12-11T07:12:17;19.70;;;10.17;;
35243;SDS011;37916;52.160;21.066;2022-12-11T07:22:18;20.57;;;13.10;;
35243;SDS011;37916;52.160;21.066;2022-12-11T07:32:29;19.07;;;7.87;;
35243;SDS011;37916;52.160;21.066;2022-12-11T07:42:53;23.87;;;11.93;;
35243;SDS011;37916;52.160;21.066;2022-12-11T07:52:56;21.90;;;9.57;;
35243;SDS011;37916;52.160;21.066;2022-12-11T08:03:02;20.17;;;10.83;;
35243;SDS011;37916;52.160;21.066;2022-12-11T08:13:13;27.00;;;13.27;;
35243;SDS011;37916;52.160;21.066;2022-12-11T08:23:19;28.20;;;13.38;;
35243;SDS011;37916;52.160;21.066;2022-12-11T08:55:10;27.00;;;16.87;;
35243;SDS011;37916;52.160;21.066;2022-12-11T09:05:16;28.47;;;12.73;;
35243;SDS011;37916;52.160;21.066;2022-12-11T13:29:00;22.43;;;10.73;;
35243;SDS011;37916;52.160;21.066;2022-12-11T18:23:50;13.27;;;7.63;;
35243;SDS011;37916;52.160;21.066;2022-12-11T21:42:38;16.40;;;8.87;;
35243;SDS011;37916;52.160;21.066;2022-12-11T21:52:44;17.50;;;9.13;;
35243;SDS011;37916;52.160;21.066;2022-12-11T22:02:55;16.77;;;8.55;;
35243;SDS011;37916;52.160;21.066;2022-12-11T22:13:03;16.08;;;8.63;;
35243;SDS011;37916;52.160;21.066;2022-12-11T22:23:35;17.45;;;9.90;;
35243;SDS011;37916;52.160;21.066;2022-12-11T22:33:45;14.88;;;9.00;;
35243;SDS011;37916;52.160;21.066;2022-12-11T22:43:46;18.50;;;8.87;;
35243;SDS011;37916;52.160;21.066;2022-12-11T22:53:47;19.17;;;10.70;;
35243;SDS011;37916;52.160;21.066;2022-12-11T23:03:48;16.50;;;9.00;;
35243;SDS011;37916;52.160;21.066;2022-12-11T23:13:49;17.75;;;9.23;;
35243;SDS011;37916;52.160;21.066;2022-12-11T23:23:50;16.43;;;8.77;;
35243;SDS011;37916;52.160;21.066;2022-12-11T23:33:51;14.23;;;8.83;;
35243;SDS011;37916;52.160;21.066;2022-12-11T23:43:52;17.48;;;8.65;;
35243;SDS011;37916;52.160;21.066;2022-12-11T23:54:03;13.07;;;6.33;;
